This is the latest recevied weather packets stored in our database for station/object EA5FOG-11. If no packets are shown the sender has not sent any weather packets the latest 10 day(s).
| Time | Temp. | Humidity | Pressure | Rain* | Wind** | Luminosity | Snow |
|---|---|---|---|---|---|---|---|
| 1777845823 | 17.22° C | 63% | 956 hPa | - | - | - | - |
| 1777844922 | 17.78° C | 63% | 956.1 hPa | - | - | - | - |
| 1777844021 | 18.33° C | 62% | 956.1 hPa | - | - | - | - |
| 1777843120 | 17.78° C | 62% | 956.1 hPa | - | - | - | - |
| 1777842220 | 18.33° C | 61% | 955.9 hPa | - | - | - | - |
| 1777841319 | 18.33° C | 61% | 955.7 hPa | - | - | - | - |
| 1777840418 | 18.33° C | 60% | 955.5 hPa | - | - | - | - |
| 1777839517 | 18.89° C | 60% | 955.2 hPa | - | - | - | - |
| 1777838616 | 18.89° C | 59% | 955 hPa | - | - | - | - |
| 1777837716 | 19.44° C | 58% | 954.8 hPa | - | - | - | - |
| 1777836815 | 19.44° C | 58% | 954.6 hPa | - | - | - | - |
| 1777835914 | 20° C | 57% | 954.5 hPa | - | - | - | - |
| 1777835013 | 20° C | 57% | 954.3 hPa | - | - | - | - |
| 1777834112 | 20.56° C | 56% | 954.2 hPa | - | - | - | - |
| 1777833212 | 21.67° C | 55% | 954 hPa | - | - | - | - |
| 1777832311 | 22.22° C | 53% | 953.9 hPa | - | - | - | - |
| 1777831410 | 23.89° C | 52% | 953.7 hPa | - | - | - | - |
| 1777830509 | 26.11° C | 49% | 953.8 hPa | - | - | - | - |
| 1777829608 | 27.22° C | 49% | 953.7 hPa | - | - | - | - |
| 1777827827 | 25.56° C | 50% | 953.6 hPa | - | - | - | - |
| 1777826926 | 25.56° C | 49% | 953.7 hPa | - | - | - | - |
| 1777826025 | 30° C | 45% | 953.7 hPa | - | - | - | - |
| 1777825124 | 30° C | 46% | 953.7 hPa | - | - | - | - |
| 1777824223 | 26.11° C | 49% | 953.7 hPa | - | - | - | - |
| 1777823323 | 26.11° C | 49% | 953.7 hPa | - | - | - | - |
* Rain since midnight (hover to see other rain measurements)
** Current wind speed in m/s (hover to see current wind gust speed)